sensor_id;sensor_type;location;lat;lon;timestamp;temperature;humidity
31799;DHT22;18374;51.136;3.502;2022-10-16T00:01:47;13.90;99.90
31799;DHT22;18374;51.136;3.502;2022-10-16T00:04:15;13.90;99.90
31799;DHT22;18374;51.136;3.502;2022-10-16T00:06:45;13.90;99.90
31799;DHT22;18374;51.136;3.502;2022-10-16T00:09:14;13.80;99.90
31799;DHT22;18374;51.136;3.502;2022-10-16T00:11:42;13.80;99.90
31799;DHT22;18374;51.136;3.502;2022-10-16T00:14:13;13.80;99.90
31799;DHT22;18374;51.136;3.502;2022-10-16T00:16:42;13.70;99.90
31799;DHT22;18374;51.136;3.502;2022-10-16T00:19:10;13.70;99.90
31799;DHT22;18374;51.136;3.502;2022-10-16T00:21:39;13.70;99.90
31799;DHT22;18374;51.136;3.502;2022-10-16T00:24:09;13.70;99.90
31799;DHT22;18374;51.136;3.502;2022-10-16T00:26:38;13.70;99.90
31799;DHT22;18374;51.136;3.502;2022-10-16T00:29:07;13.60;99.90
31799;DHT22;18374;51.136;3.502;2022-10-16T00:31:35;13.60;99.90
31799;DHT22;18374;51.136;3.502;2022-10-16T00:34:03;13.50;99.90
31799;DHT22;18374;51.136;3.502;2022-10-16T00:36:31;13.50;99.90
31799;DHT22;18374;51.136;3.502;2022-10-16T00:39:01;13.50;99.90
31799;DHT22;18374;51.136;3.502;2022-10-16T00:41:33;13.50;99.90
31799;DHT22;18374;51.136;3.502;2022-10-16T00:47:18;13.50;99.90
31799;DHT22;18374;51.136;3.502;2022-10-16T00:49:58;13.40;99.90
31799;DHT22;18374;51.136;3.502;2022-10-16T00:52:28;13.50;99.90
31799;DHT22;18374;51.136;3.502;2022-10-16T00:55:06;13.40;99.90
31799;DHT22;18374;51.136;3.502;2022-10-16T00:57:34;13.40;99.90
31799;DHT22;18374;51.136;3.502;2022-10-16T01:00:08;13.40;99.90
31799;DHT22;18374;51.136;3.502;2022-10-16T01:02:51;13.40;99.90
31799;DHT22;18374;51.136;3.502;2022-10-16T01:05:49;13.30;99.90
31799;DHT22;18374;51.136;3.502;2022-10-16T01:08:55;13.30;99.90
31799;DHT22;18374;51.136;3.502;2022-10-16T01:11:35;13.30;99.90
31799;DHT22;18374;51.136;3.502;2022-10-16T01:14:24;13.30;99.90
31799;DHT22;18374;51.136;3.502;2022-10-16T01:17:04;13.30;99.90
31799;DHT22;18374;51.136;3.502;2022-10-16T01:22:37;13.30;99.90
31799;DHT22;18374;51.136;3.502;2022-10-16T01:28:22;13.30;99.90
31799;DHT22;18374;51.136;3.502;2022-10-16T01:30:59;13.20;99.90
31799;DHT22;18374;51.136;3.502;2022-10-16T01:33:46;13.20;99.90
31799;DHT22;18374;51.136;3.502;2022-10-16T01:36:25;13.20;99.90
31799;DHT22;18374;51.136;3.502;2022-10-16T01:38:58;13.20;99.90
31799;DHT22;18374;51.136;3.502;2022-10-16T01:41:35;13.20;99.90
31799;DHT22;18374;51.136;3.502;2022-10-16T01:44:08;13.20;99.90
31799;DHT22;18374;51.136;3.502;2022-10-16T01:46:49;13.30;99.90
31799;DHT22;18374;51.136;3.502;2022-10-16T01:49:20;13.30;99.90
31799;DHT22;18374;51.136;3.502;2022-10-16T01:51:54;13.30;99.90
31799;DHT22;18374;51.136;3.502;2022-10-16T01:54:27;13.20;99.90
31799;DHT22;18374;51.136;3.502;2022-10-16T01:56:58;13.30;99.90
31799;DHT22;18374;51.136;3.502;2022-10-16T01:59:31;13.20;99.90
31799;DHT22;18374;51.136;3.502;2022-10-16T02:02:08;13.20;99.90
31799;DHT22;18374;51.136;3.502;2022-10-16T02:04:42;13.20;99.90
31799;DHT22;18374;51.136;3.502;2022-10-16T02:07:12;13.20;99.90
31799;DHT22;18374;51.136;3.502;2022-10-16T02:09:43;13.20;99.90
31799;DHT22;18374;51.136;3.502;2022-10-16T02:12:33;13.20;99.90
31799;DHT22;18374;51.136;3.502;2022-10-16T02:18:11;13.20;99.90
31799;DHT22;18374;51.136;3.502;2022-10-16T02:23:45;13.20;99.90
31799;DHT22;18374;51.136;3.502;2022-10-16T02:26:38;13.20;99.90
31799;DHT22;18374;51.136;3.502;2022-10-16T02:29:13;13.20;99.90
31799;DHT22;18374;51.136;3.502;2022-10-16T02:31:46;13.20;99.90
31799;DHT22;18374;51.136;3.502;2022-10-16T02:34:19;13.10;99.90
31799;DHT22;18374;51.136;3.502;2022-10-16T02:36:50;13.10;99.90
31799;DHT22;18374;51.136;3.502;2022-10-16T02:39:18;13.10;99.90
31799;DHT22;18374;51.136;3.502;2022-10-16T02:41:47;13.10;99.90
31799;DHT22;18374;51.136;3.502;2022-10-16T02:44:15;13.10;99.90
31799;DHT22;18374;51.136;3.502;2022-10-16T02:46:43;13.10;99.90
31799;DHT22;18374;51.136;3.502;2022-10-16T02:49:11;13.10;99.90
31799;DHT22;18374;51.136;3.502;2022-10-16T02:51:38;13.10;99.90
31799;DHT22;18374;51.136;3.502;2022-10-16T02:54:06;13.10;99.90
31799;DHT22;18374;51.136;3.502;2022-10-16T02:56:34;13.10;99.90
31799;DHT22;18374;51.136;3.502;2022-10-16T02:59:01;13.00;99.90
31799;DHT22;18374;51.136;3.502;2022-10-16T03:01:30;13.00;99.90
31799;DHT22;18374;51.136;3.502;2022-10-16T03:03:57;13.00;99.90
31799;DHT22;18374;51.136;3.502;2022-10-16T03:06:27;13.00;99.90
31799;DHT22;18374;51.136;3.502;2022-10-16T03:08:55;13.00;99.90
31799;DHT22;18374;51.136;3.502;2022-10-16T03:11:23;13.00;99.90
31799;DHT22;18374;51.136;3.502;2022-10-16T03:13:50;13.00;99.90
31799;DHT22;18374;51.136;3.502;2022-10-16T03:16:19;13.00;99.90
31799;DHT22;18374;51.136;3.502;2022-10-16T03:18:50;12.90;99.90
31799;DHT22;18374;51.136;3.502;2022-10-16T03:21:19;13.00;99.90
31799;DHT22;18374;51.136;3.502;2022-10-16T03:23:49;12.90;99.90
31799;DHT22;18374;51.136;3.502;2022-10-16T03:26:17;12.90;99.90
31799;DHT22;18374;51.136;3.502;2022-10-16T03:28:44;12.90;99.90
31799;DHT22;18374;51.136;3.502;2022-10-16T03:31:12;12.90;99.90
31799;DHT22;18374;51.136;3.502;2022-10-16T03:33:40;12.90;99.90
31799;DHT22;18374;51.136;3.502;2022-10-16T03:36:08;12.90;99.90
31799;DHT22;18374;51.136;3.502;2022-10-16T03:38:35;12.90;99.90
31799;DHT22;18374;51.136;3.502;2022-10-16T03:41:03;12.90;99.90
31799;DHT22;18374;51.136;3.502;2022-10-16T03:43:31;12.80;99.90
31799;DHT22;18374;51.136;3.502;2022-10-16T03:45:59;12.80;99.90
31799;DHT22;18374;51.136;3.502;2022-10-16T03:48:27;12.80;99.90
31799;DHT22;18374;51.136;3.502;2022-10-16T03:50:54;12.80;99.90
31799;DHT22;18374;51.136;3.502;2022-10-16T03:53:22;12.80;99.90
31799;DHT22;18374;51.136;3.502;2022-10-16T03:55:50;12.80;99.90
31799;DHT22;18374;51.136;3.502;2022-10-16T03:58:18;12.80;99.90
31799;DHT22;18374;51.136;3.502;2022-10-16T04:00:47;12.80;99.90
31799;DHT22;18374;51.136;3.502;2022-10-16T04:03:15;12.70;99.90
31799;DHT22;18374;51.136;3.502;2022-10-16T04:05:44;12.80;99.90
31799;DHT22;18374;51.136;3.502;2022-10-16T04:08:12;12.70;99.90
31799;DHT22;18374;51.136;3.502;2022-10-16T04:10:41;12.70;99.90
31799;DHT22;18374;51.136;3.502;2022-10-16T04:13:10;12.70;99.90
31799;DHT22;18374;51.136;3.502;2022-10-16T04:15:38;12.70;99.90
31799;DHT22;18374;51.136;3.502;2022-10-16T04:18:06;12.60;99.90
31799;DHT22;18374;51.136;3.502;2022-10-16T04:20:34;12.70;99.90
31799;DHT22;18374;51.136;3.502;2022-10-16T04:23:02;12.70;99.90
31799;DHT22;18374;51.136;3.502;2022-10-16T04:25:30;12.70;99.90
31799;DHT22;18374;51.136;3.502;2022-10-16T04:28:05;12.60;99.90
31799;DHT22;18374;51.136;3.502;2022-10-16T04:30:33;12.70;99.90
31799;DHT22;18374;51.136;3.502;2022-10-16T04:33:01;12.70;99.90
31799;DHT22;18374;51.136;3.502;2022-10-16T04:35:29;12.60;99.90
31799;DHT22;18374;51.136;3.502;2022-10-16T04:37:59;12.70;99.90
31799;DHT22;18374;51.136;3.502;2022-10-16T04:40:27;12.60;99.90
31799;DHT22;18374;51.136;3.502;2022-10-16T04:42:55;12.60;99.90
31799;DHT22;18374;51.136;3.502;2022-10-16T04:45:23;12.60;99.90
31799;DHT22;18374;51.136;3.502;2022-10-16T04:47:50;12.60;99.90
31799;DHT22;18374;51.136;3.502;2022-10-16T04:50:18;12.60;99.90
31799;DHT22;18374;51.136;3.502;2022-10-16T04:53:01;12.60;99.90
31799;DHT22;18374;51.136;3.502;2022-10-16T04:55:31;12.60;99.90
31799;DHT22;18374;51.136;3.502;2022-10-16T04:57:58;12.50;99.90
31799;DHT22;18374;51.136;3.502;2022-10-16T05:00:27;12.50;99.90
31799;DHT22;18374;51.136;3.502;2022-10-16T05:02:54;12.50;99.90
31799;DHT22;18374;51.136;3.502;2022-10-16T05:05:22;12.50;99.90
31799;DHT22;18374;51.136;3.502;2022-10-16T05:07:51;12.60;99.90
31799;DHT22;18374;51.136;3.502;2022-10-16T05:10:19;12.60;99.90
31799;DHT22;18374;51.136;3.502;2022-10-16T05:12:47;12.60;99.90
31799;DHT22;18374;51.136;3.502;2022-10-16T05:15:15;12.60;99.90
31799;DHT22;18374;51.136;3.502;2022-10-16T05:17:42;12.60;99.90
31799;DHT22;18374;51.136;3.502;2022-10-16T05:20:13;12.60;99.90
31799;DHT22;18374;51.136;3.502;2022-10-16T05:22:41;12.70;99.90
31799;DHT22;18374;51.136;3.502;2022-10-16T05:25:08;12.60;99.90
31799;DHT22;18374;51.136;3.502;2022-10-16T05:27:36;12.70;99.90
31799;DHT22;18374;51.136;3.502;2022-10-16T05:30:04;12.70;99.90
31799;DHT22;18374;51.136;3.502;2022-10-16T05:32:46;12.60;99.90
31799;DHT22;18374;51.136;3.502;2022-10-16T05:35:16;12.60;99.90
31799;DHT22;18374;51.136;3.502;2022-10-16T05:37:44;12.70;99.90
31799;DHT22;18374;51.136;3.502;2022-10-16T05:40:13;12.60;99.90
31799;DHT22;18374;51.136;3.502;2022-10-16T05:42:41;12.60;99.90
31799;DHT22;18374;51.136;3.502;2022-10-16T05:45:10;12.60;99.90
31799;DHT22;18374;51.136;3.502;2022-10-16T05:47:39;12.60;99.90
31799;DHT22;18374;51.136;3.502;2022-10-16T05:50:07;12.60;99.90
31799;DHT22;18374;51.136;3.502;2022-10-16T05:52:35;12.60;99.90
31799;DHT22;18374;51.136;3.502;2022-10-16T05:55:03;12.50;99.90
31799;DHT22;18374;51.136;3.502;2022-10-16T05:57:31;12.50;99.90
31799;DHT22;18374;51.136;3.502;2022-10-16T05:59:59;12.50;99.90
31799;DHT22;18374;51.136;3.502;2022-10-16T06:02:27;12.50;99.90
31799;DHT22;18374;51.136;3.502;2022-10-16T06:04:54;12.50;99.90
31799;DHT22;18374;51.136;3.502;2022-10-16T06:07:22;12.60;99.90
31799;DHT22;18374;51.136;3.502;2022-10-16T06:09:52;12.50;99.90
31799;DHT22;18374;51.136;3.502;2022-10-16T06:12:20;12.60;99.90
31799;DHT22;18374;51.136;3.502;2022-10-16T06:14:48;12.60;99.90
31799;DHT22;18374;51.136;3.502;2022-10-16T06:17:16;12.60;99.90
31799;DHT22;18374;51.136;3.502;2022-10-16T06:19:46;12.60;99.90
31799;DHT22;18374;51.136;3.502;2022-10-16T06:22:17;12.70;99.90
31799;DHT22;18374;51.136;3.502;2022-10-16T06:24:45;12.70;99.90
31799;DHT22;18374;51.136;3.502;2022-10-16T06:27:19;12.70;99.90
31799;DHT22;18374;51.136;3.502;2022-10-16T06:29:47;12.70;99.90
31799;DHT22;18374;51.136;3.502;2022-10-16T06:32:17;12.80;99.90
31799;DHT22;18374;51.136;3.502;2022-10-16T06:34:49;12.70;99.90
31799;DHT22;18374;51.136;3.502;2022-10-16T06:37:16;12.80;99.90
31799;DHT22;18374;51.136;3.502;2022-10-16T06:39:44;12.70;99.90
31799;DHT22;18374;51.136;3.502;2022-10-16T06:42:14;12.70;99.90
31799;DHT22;18374;51.136;3.502;2022-10-16T06:44:42;12.70;99.90
31799;DHT22;18374;51.136;3.502;2022-10-16T06:47:10;12.70;99.90
31799;DHT22;18374;51.136;3.502;2022-10-16T06:49:38;12.80;99.90
31799;DHT22;18374;51.136;3.502;2022-10-16T06:52:07;12.70;99.90
31799;DHT22;18374;51.136;3.502;2022-10-16T06:54:35;12.80;99.90
31799;DHT22;18374;51.136;3.502;2022-10-16T06:57:08;12.80;99.90
31799;DHT22;18374;51.136;3.502;2022-10-16T06:59:36;12.80;99.90
31799;DHT22;18374;51.136;3.502;2022-10-16T07:02:03;12.80;99.90
31799;DHT22;18374;51.136;3.502;2022-10-16T07:04:31;12.80;99.90
31799;DHT22;18374;51.136;3.502;2022-10-16T07:07:00;12.80;99.90
31799;DHT22;18374;51.136;3.502;2022-10-16T07:09:33;12.90;99.90
31799;DHT22;18374;51.136;3.502;2022-10-16T07:12:02;12.90;99.90
31799;DHT22;18374;51.136;3.502;2022-10-16T07:14:30;12.90;99.90
31799;DHT22;18374;51.136;3.502;2022-10-16T07:16:58;12.90;99.90
31799;DHT22;18374;51.136;3.502;2022-10-16T07:19:25;12.90;99.90
31799;DHT22;18374;51.136;3.502;2022-10-16T07:21:58;13.00;99.90
31799;DHT22;18374;51.136;3.502;2022-10-16T07:24:26;13.00;99.90
31799;DHT22;18374;51.136;3.502;2022-10-16T07:26:54;13.00;99.90
31799;DHT22;18374;51.136;3.502;2022-10-16T07:29:21;13.10;99.90
31799;DHT22;18374;51.136;3.502;2022-10-16T07:31:49;13.10;99.90
31799;DHT22;18374;51.136;3.502;2022-10-16T07:34:18;13.10;99.90
31799;DHT22;18374;51.136;3.502;2022-10-16T07:36:50;13.20;99.90
31799;DHT22;18374;51.136;3.502;2022-10-16T07:39:36;13.20;99.90
31799;DHT22;18374;51.136;3.502;2022-10-16T07:42:04;13.30;99.90
31799;DHT22;18374;51.136;3.502;2022-10-16T07:44:31;13.30;99.90
31799;DHT22;18374;51.136;3.502;2022-10-16T07:47:04;13.40;99.90
31799;DHT22;18374;51.136;3.502;2022-10-16T07:49:37;13.40;99.90
31799;DHT22;18374;51.136;3.502;2022-10-16T07:52:06;13.50;99.90
31799;DHT22;18374;51.136;3.502;2022-10-16T07:54:37;13.50;99.90
31799;DHT22;18374;51.136;3.502;2022-10-16T07:57:04;13.60;99.90
31799;DHT22;18374;51.136;3.502;2022-10-16T07:59:35;13.60;99.90
31799;DHT22;18374;51.136;3.502;2022-10-16T08:02:04;13.70;99.90
31799;DHT22;18374;51.136;3.502;2022-10-16T08:04:32;13.90;99.90
31799;DHT22;18374;51.136;3.502;2022-10-16T08:07:00;13.90;99.90
31799;DHT22;18374;51.136;3.502;2022-10-16T08:09:28;14.00;99.90
31799;DHT22;18374;51.136;3.502;2022-10-16T08:12:05;14.10;99.90
31799;DHT22;18374;51.136;3.502;2022-10-16T08:14:44;14.20;99.90
31799;DHT22;18374;51.136;3.502;2022-10-16T08:17:16;14.30;99.90
31799;DHT22;18374;51.136;3.502;2022-10-16T08:19:50;14.40;99.90
31799;DHT22;18374;51.136;3.502;2022-10-16T08:22:26;14.50;99.90
31799;DHT22;18374;51.136;3.502;2022-10-16T08:24:55;14.60;99.90
31799;DHT22;18374;51.136;3.502;2022-10-16T08:27:23;14.70;99.90
31799;DHT22;18374;51.136;3.502;2022-10-16T08:29:54;14.70;99.90
31799;DHT22;18374;51.136;3.502;2022-10-16T08:32:29;14.80;99.90
31799;DHT22;18374;51.136;3.502;2022-10-16T08:35:06;14.80;99.90
31799;DHT22;18374;51.136;3.502;2022-10-16T08:37:37;14.80;99.90
31799;DHT22;18374;51.136;3.502;2022-10-16T08:40:07;14.90;99.90
31799;DHT22;18374;51.136;3.502;2022-10-16T08:46:04;15.20;99.90
31799;DHT22;18374;51.136;3.502;2022-10-16T08:48:58;15.30;99.90
31799;DHT22;18374;51.136;3.502;2022-10-16T08:51:29;15.30;99.90
31799;DHT22;18374;51.136;3.502;2022-10-16T08:54:02;15.40;99.90
31799;DHT22;18374;51.136;3.502;2022-10-16T08:56:32;15.50;99.90
31799;DHT22;18374;51.136;3.502;2022-10-16T08:59:00;15.50;99.90
31799;DHT22;18374;51.136;3.502;2022-10-16T09:01:51;15.60;99.90
31799;DHT22;18374;51.136;3.502;2022-10-16T09:04:47;15.70;99.90
31799;DHT22;18374;51.136;3.502;2022-10-16T09:07:57;15.80;99.90
31799;DHT22;18374;51.136;3.502;2022-10-16T09:10:59;15.80;99.90
31799;DHT22;18374;51.136;3.502;2022-10-16T09:17:22;16.00;99.90
31799;DHT22;18374;51.136;3.502;2022-10-16T09:23:27;16.10;99.90
31799;DHT22;18374;51.136;3.502;2022-10-16T09:25:58;16.20;99.90
31799;DHT22;18374;51.136;3.502;2022-10-16T09:28:26;16.30;99.90
31799;DHT22;18374;51.136;3.502;2022-10-16T09:30:54;16.40;99.90
31799;DHT22;18374;51.136;3.502;2022-10-16T09:33:25;16.50;99.90
31799;DHT22;18374;51.136;3.502;2022-10-16T09:35:57;16.60;99.90
31799;DHT22;18374;51.136;3.502;2022-10-16T09:38:34;16.80;99.90
31799;DHT22;18374;51.136;3.502;2022-10-16T09:46:27;16.70;99.90
31799;DHT22;18374;51.136;3.502;2022-10-16T09:49:00;16.60;99.90
31799;DHT22;18374;51.136;3.502;2022-10-16T09:51:45;16.50;99.90
31799;DHT22;18374;51.136;3.502;2022-10-16T09:54:17;16.40;99.90
31799;DHT22;18374;51.136;3.502;2022-10-16T09:56:49;16.40;99.90
31799;DHT22;18374;51.136;3.502;2022-10-16T09:59:23;16.50;99.90
31799;DHT22;18374;51.136;3.502;2022-10-16T10:02:01;16.50;99.90
31799;DHT22;18374;51.136;3.502;2022-10-16T10:04:53;16.60;99.90
31799;DHT22;18374;51.136;3.502;2022-10-16T10:07:27;16.70;99.90
31799;DHT22;18374;51.136;3.502;2022-10-16T10:10:04;16.70;99.90
31799;DHT22;18374;51.136;3.502;2022-10-16T10:12:33;16.60;99.90
31799;DHT22;18374;51.136;3.502;2022-10-16T10:15:09;16.70;99.90
31799;DHT22;18374;51.136;3.502;2022-10-16T10:17:55;16.90;99.90
31799;DHT22;18374;51.136;3.502;2022-10-16T10:20:32;17.00;99.90
31799;DHT22;18374;51.136;3.502;2022-10-16T10:23:21;17.20;99.90
31799;DHT22;18374;51.136;3.502;2022-10-16T10:29:03;17.40;99.90
31799;DHT22;18374;51.136;3.502;2022-10-16T10:35:45;17.50;99.90
31799;DHT22;18374;51.136;3.502;2022-10-16T10:45:41;17.50;99.90
31799;DHT22;18374;51.136;3.502;2022-10-16T10:48:38;17.50;99.90
31799;DHT22;18374;51.136;3.502;2022-10-16T10:51:15;17.50;99.90
31799;DHT22;18374;51.136;3.502;2022-10-16T10:56:48;17.20;99.90
31799;DHT22;18374;51.136;3.502;2022-10-16T11:02:31;17.00;99.90
31799;DHT22;18374;51.136;3.502;2022-10-16T11:11:00;17.20;99.90
31799;DHT22;18374;51.136;3.502;2022-10-16T11:16:30;17.50;99.90
31799;DHT22;18374;51.136;3.502;2022-10-16T11:24:58;17.60;99.90
31799;DHT22;18374;51.136;3.502;2022-10-16T11:31:13;17.90;99.90
31799;DHT22;18374;51.136;3.502;2022-10-16T11:37:24;18.20;99.90
31799;DHT22;18374;51.136;3.502;2022-10-16T11:40:37;18.30;99.90
31799;DHT22;18374;51.136;3.502;2022-10-16T11:45:52;18.00;99.90
31799;DHT22;18374;51.136;3.502;2022-10-16T11:48:36;17.90;99.90
31799;DHT22;18374;51.136;3.502;2022-10-16T11:51:14;17.80;99.90
31799;DHT22;18374;51.136;3.502;2022-10-16T11:56:29;17.60;99.90
31799;DHT22;18374;51.136;3.502;2022-10-16T11:59:03;17.50;99.90
31799;DHT22;18374;51.136;3.502;2022-10-16T12:01:45;17.50;99.90
31799;DHT22;18374;51.136;3.502;2022-10-16T12:04:43;17.50;99.90
31799;DHT22;18374;51.136;3.502;2022-10-16T12:07:17;17.50;99.90
31799;DHT22;18374;51.136;3.502;2022-10-16T12:09:48;17.50;99.90
31799;DHT22;18374;51.136;3.502;2022-10-16T12:15:24;17.40;99.90
31799;DHT22;18374;51.136;3.502;2022-10-16T12:18:24;17.40;99.90
31799;DHT22;18374;51.136;3.502;2022-10-16T12:20:59;17.40;99.90
31799;DHT22;18374;51.136;3.502;2022-10-16T12:23:53;17.30;99.90
31799;DHT22;18374;51.136;3.502;2022-10-16T12:26:31;17.40;99.90
31799;DHT22;18374;51.136;3.502;2022-10-16T12:29:23;17.50;99.90
31799;DHT22;18374;51.136;3.502;2022-10-16T12:32:40;17.70;99.90
31799;DHT22;18374;51.136;3.502;2022-10-16T12:35:22;17.90;99.90
31799;DHT22;18374;51.136;3.502;2022-10-16T12:37:53;17.90;99.90
31799;DHT22;18374;51.136;3.502;2022-10-16T12:40:32;17.90;99.90
31799;DHT22;18374;51.136;3.502;2022-10-16T12:43:13;18.00;99.90
31799;DHT22;18374;51.136;3.502;2022-10-16T12:51:55;18.30;99.90
31799;DHT22;18374;51.136;3.502;2022-10-16T12:54:37;18.50;99.90
31799;DHT22;18374;51.136;3.502;2022-10-16T13:06:51;18.60;99.90
31799;DHT22;18374;51.136;3.502;2022-10-16T13:09:40;18.50;99.90
31799;DHT22;18374;51.136;3.502;2022-10-16T13:12:30;18.30;99.90
31799;DHT22;18374;51.136;3.502;2022-10-16T13:18:05;18.30;99.90
31799;DHT22;18374;51.136;3.502;2022-10-16T13:26:49;18.10;99.90
31799;DHT22;18374;51.136;3.502;2022-10-16T13:29:32;18.10;99.90
31799;DHT22;18374;51.136;3.502;2022-10-16T13:32:10;18.10;99.90
31799;DHT22;18374;51.136;3.502;2022-10-16T13:34:53;18.20;99.90
31799;DHT22;18374;51.136;3.502;2022-10-16T13:37:36;18.10;99.90
31799;DHT22;18374;51.136;3.502;2022-10-16T13:40:23;18.00;99.90
31799;DHT22;18374;51.136;3.502;2022-10-16T13:43:34;18.00;99.90
31799;DHT22;18374;51.136;3.502;2022-10-16T13:46:40;18.00;99.90
31799;DHT22;18374;51.136;3.502;2022-10-16T13:49:36;18.10;99.90
31799;DHT22;18374;51.136;3.502;2022-10-16T13:52:35;18.00;99.90
31799;DHT22;18374;51.136;3.502;2022-10-16T13:55:18;18.00;99.90
31799;DHT22;18374;51.136;3.502;2022-10-16T13:57:52;18.00;99.90
31799;DHT22;18374;51.136;3.502;2022-10-16T14:00:24;17.90;99.90
31799;DHT22;18374;51.136;3.502;2022-10-16T14:03:07;17.90;99.90
31799;DHT22;18374;51.136;3.502;2022-10-16T14:06:12;17.90;99.90
31799;DHT22;18374;51.136;3.502;2022-10-16T14:09:07;17.80;99.90
31799;DHT22;18374;51.136;3.502;2022-10-16T14:12:03;17.80;99.90
31799;DHT22;18374;51.136;3.502;2022-10-16T14:14:51;17.80;99.90
31799;DHT22;18374;51.136;3.502;2022-10-16T14:17:31;17.80;99.90
31799;DHT22;18374;51.136;3.502;2022-10-16T14:20:15;17.70;99.90
31799;DHT22;18374;51.136;3.502;2022-10-16T14:22:43;17.70;99.90
31799;DHT22;18374;51.136;3.502;2022-10-16T14:25:26;17.70;99.90
31799;DHT22;18374;51.136;3.502;2022-10-16T14:28:02;17.70;99.90
31799;DHT22;18374;51.136;3.502;2022-10-16T14:36:12;17.70;99.90
31799;DHT22;18374;51.136;3.502;2022-10-16T14:38:59;17.60;99.90
31799;DHT22;18374;51.136;3.502;2022-10-16T14:41:32;17.60;99.90
31799;DHT22;18374;51.136;3.502;2022-10-16T14:44:21;17.60;99.90
31799;DHT22;18374;51.136;3.502;2022-10-16T14:46:58;17.60;99.90
31799;DHT22;18374;51.136;3.502;2022-10-16T14:49:30;17.50;99.90
31799;DHT22;18374;51.136;3.502;2022-10-16T14:51:59;17.50;99.90
31799;DHT22;18374;51.136;3.502;2022-10-16T14:54:28;17.50;99.90
31799;DHT22;18374;51.136;3.502;2022-10-16T14:56:57;17.50;99.90
31799;DHT22;18374;51.136;3.502;2022-10-16T14:59:30;17.50;99.90
31799;DHT22;18374;51.136;3.502;2022-10-16T15:02:37;17.50;99.90
31799;DHT22;18374;51.136;3.502;2022-10-16T15:05:22;17.40;99.90
31799;DHT22;18374;51.136;3.502;2022-10-16T15:07:58;17.40;99.90
31799;DHT22;18374;51.136;3.502;2022-10-16T15:10:28;17.40;99.90
31799;DHT22;18374;51.136;3.502;2022-10-16T15:13:03;17.30;99.90
31799;DHT22;18374;51.136;3.502;2022-10-16T15:15:42;17.40;99.90
31799;DHT22;18374;51.136;3.502;2022-10-16T15:18:11;17.40;99.90
31799;DHT22;18374;51.136;3.502;2022-10-16T15:20:44;17.30;99.90
31799;DHT22;18374;51.136;3.502;2022-10-16T15:23:36;17.30;99.90
31799;DHT22;18374;51.136;3.502;2022-10-16T15:26:18;17.20;99.90
31799;DHT22;18374;51.136;3.502;2022-10-16T15:29:41;17.20;99.90
31799;DHT22;18374;51.136;3.502;2022-10-16T15:32:25;17.20;99.90
31799;DHT22;18374;51.136;3.502;2022-10-16T15:34:54;17.20;99.90
31799;DHT22;18374;51.136;3.502;2022-10-16T15:37:50;17.20;99.90
31799;DHT22;18374;51.136;3.502;2022-10-16T15:40:29;17.20;99.90
31799;DHT22;18374;51.136;3.502;2022-10-16T15:43:04;17.20;99.90
31799;DHT22;18374;51.136;3.502;2022-10-16T15:46:04;17.20;99.90
31799;DHT22;18374;51.136;3.502;2022-10-16T15:48:41;17.20;99.90
31799;DHT22;18374;51.136;3.502;2022-10-16T15:51:29;17.10;99.90
31799;DHT22;18374;51.136;3.502;2022-10-16T15:54:04;17.10;99.90
31799;DHT22;18374;51.136;3.502;2022-10-16T15:56:54;17.00;99.90
31799;DHT22;18374;51.136;3.502;2022-10-16T15:59:24;17.00;99.90
31799;DHT22;18374;51.136;3.502;2022-10-16T16:02:02;16.90;99.90
31799;DHT22;18374;51.136;3.502;2022-10-16T16:04:37;16.80;99.90
31799;DHT22;18374;51.136;3.502;2022-10-16T16:07:11;16.80;99.90
31799;DHT22;18374;51.136;3.502;2022-10-16T16:09:39;16.70;99.90
31799;DHT22;18374;51.136;3.502;2022-10-16T16:12:16;16.70;99.90
31799;DHT22;18374;51.136;3.502;2022-10-16T16:14:59;16.60;99.90
31799;DHT22;18374;51.136;3.502;2022-10-16T16:17:41;16.60;99.90
31799;DHT22;18374;51.136;3.502;2022-10-16T16:20:13;16.60;99.90
31799;DHT22;18374;51.136;3.502;2022-10-16T16:22:46;16.50;99.90
31799;DHT22;18374;51.136;3.502;2022-10-16T16:25:13;16.50;99.90
31799;DHT22;18374;51.136;3.502;2022-10-16T16:27:41;16.40;99.90
31799;DHT22;18374;51.136;3.502;2022-10-16T16:30:11;16.40;99.90
31799;DHT22;18374;51.136;3.502;2022-10-16T16:32:46;16.40;99.90
31799;DHT22;18374;51.136;3.502;2022-10-16T16:35:14;16.40;99.90
31799;DHT22;18374;51.136;3.502;2022-10-16T16:37:42;16.40;99.90
31799;DHT22;18374;51.136;3.502;2022-10-16T16:40:09;16.30;99.90
31799;DHT22;18374;51.136;3.502;2022-10-16T16:42:37;16.30;99.90
31799;DHT22;18374;51.136;3.502;2022-10-16T16:45:05;16.30;99.90
31799;DHT22;18374;51.136;3.502;2022-10-16T16:47:34;16.30;99.90
31799;DHT22;18374;51.136;3.502;2022-10-16T16:50:02;16.20;99.90
31799;DHT22;18374;51.136;3.502;2022-10-16T16:52:32;16.20;99.90
31799;DHT22;18374;51.136;3.502;2022-10-16T16:55:01;16.10;99.90
31799;DHT22;18374;51.136;3.502;2022-10-16T16:57:30;16.10;99.90
31799;DHT22;18374;51.136;3.502;2022-10-16T16:59:57;16.10;99.90
31799;DHT22;18374;51.136;3.502;2022-10-16T17:02:25;16.00;99.90
31799;DHT22;18374;51.136;3.502;2022-10-16T17:04:52;16.00;99.90
31799;DHT22;18374;51.136;3.502;2022-10-16T17:07:20;16.00;99.90
31799;DHT22;18374;51.136;3.502;2022-10-16T17:09:53;16.00;99.90
31799;DHT22;18374;51.136;3.502;2022-10-16T17:12:22;16.00;99.90
31799;DHT22;18374;51.136;3.502;2022-10-16T17:14:50;15.90;99.90
31799;DHT22;18374;51.136;3.502;2022-10-16T17:17:19;15.90;99.90
31799;DHT22;18374;51.136;3.502;2022-10-16T17:19:51;15.90;99.90
31799;DHT22;18374;51.136;3.502;2022-10-16T17:22:19;15.90;99.90
31799;DHT22;18374;51.136;3.502;2022-10-16T17:24:48;15.80;99.90
31799;DHT22;18374;51.136;3.502;2022-10-16T17:27:18;15.80;99.90
31799;DHT22;18374;51.136;3.502;2022-10-16T17:29:50;15.80;99.90
31799;DHT22;18374;51.136;3.502;2022-10-16T17:32:19;15.80;99.90
31799;DHT22;18374;51.136;3.502;2022-10-16T17:34:52;15.80;99.90
31799;DHT22;18374;51.136;3.502;2022-10-16T17:37:20;15.80;99.90
31799;DHT22;18374;51.136;3.502;2022-10-16T17:39:52;15.80;99.90
31799;DHT22;18374;51.136;3.502;2022-10-16T17:42:20;15.80;99.90
31799;DHT22;18374;51.136;3.502;2022-10-16T17:44:48;15.80;99.90
31799;DHT22;18374;51.136;3.502;2022-10-16T17:47:15;15.90;99.90
31799;DHT22;18374;51.136;3.502;2022-10-16T17:49:43;15.90;99.90
31799;DHT22;18374;51.136;3.502;2022-10-16T17:52:18;15.90;99.90
31799;DHT22;18374;51.136;3.502;2022-10-16T17:54:49;15.90;99.90
31799;DHT22;18374;51.136;3.502;2022-10-16T17:57:18;15.90;99.90
31799;DHT22;18374;51.136;3.502;2022-10-16T17:59:46;15.90;99.90
31799;DHT22;18374;51.136;3.502;2022-10-16T18:02:14;15.90;99.90
31799;DHT22;18374;51.136;3.502;2022-10-16T18:04:42;15.90;99.90
31799;DHT22;18374;51.136;3.502;2022-10-16T18:07:09;15.90;99.90